sensor_id;sensor_type;location;lat;lon;timestamp;noise_LAeq;noise_LA_min;noise_LA_max;noise_LA01;noise_LA95
45246;Laerm;31529;51.158;7.354;2022-10-17T00:00:13;45.29;36.50;55.40;;
45246;Laerm;31529;51.158;7.354;2022-10-17T00:00:44;62.70;35.96;75.24;;
45246;Laerm;31529;51.158;7.354;2022-10-17T00:01:15;38.51;33.74;41.83;;
45246;Laerm;31529;51.158;7.354;2022-10-17T00:01:46;39.25;33.85;41.91;;
45246;Laerm;31529;51.158;7.354;2022-10-17T00:02:17;38.67;32.65;41.91;;
45246;Laerm;31529;51.158;7.354;2022-10-17T00:02:48;39.22;34.20;42.12;;
45246;Laerm;31529;51.158;7.354;2022-10-17T00:03:19;39.56;34.99;42.05;;
45246;Laerm;31529;51.158;7.354;2022-10-17T00:03:50;39.24;30.22;42.33;;
45246;Laerm;31529;51.158;7.354;2022-10-17T00:04:21;38.69;32.65;41.76;;
45246;Laerm;31529;51.158;7.354;2022-10-17T00:04:52;38.76;34.20;41.52;;
45246;Laerm;31529;51.158;7.354;2022-10-17T00:05:23;38.89;33.74;44.61;;
45246;Laerm;31529;51.158;7.354;2022-10-17T00:05:55;38.22;32.65;40.83;;
45246;Laerm;31529;51.158;7.354;2022-10-17T00:06:25;38.41;33.74;41.01;;
45246;Laerm;31529;51.158;7.354;2022-10-17T00:06:57;38.32;31.98;40.63;;
45246;Laerm;31529;51.158;7.354;2022-10-17T00:07:29;38.69;33.23;41.01;;
45246;Laerm;31529;51.158;7.354;2022-10-17T00:08:00;38.76;34.61;41.19;;
45246;Laerm;31529;51.158;7.354;2022-10-17T00:08:31;38.79;32.65;41.01;;
45246;Laerm;31529;51.158;7.354;2022-10-17T00:09:02;38.59;34.20;40.92;;
45246;Laerm;31529;51.158;7.354;2022-10-17T00:09:33;37.98;32.65;40.73;;
45246;Laerm;31529;51.158;7.354;2022-10-17T00:10:06;38.45;34.20;41.10;;
45246;Laerm;31529;51.158;7.354;2022-10-17T00:10:38;38.45;33.74;41.52;;
45246;Laerm;31529;51.158;7.354;2022-10-17T00:11:16;38.61;31.98;42.46;;
45246;Laerm;31529;51.158;7.354;2022-10-17T00:11:47;38.91;31.98;45.72;;
45246;Laerm;31529;51.158;7.354;2022-10-17T00:12:18;38.97;33.74;42.95;;
45246;Laerm;31529;51.158;7.354;2022-10-17T00:12:50;39.26;34.20;41.68;;
45246;Laerm;31529;51.158;7.354;2022-10-17T00:13:21;39.93;35.34;42.71;;
45246;Laerm;31529;51.158;7.354;2022-10-17T00:13:53;39.09;33.85;45.81;;
45246;Laerm;31529;51.158;7.354;2022-10-17T00:14:24;38.73;34.20;41.68;;
45246;Laerm;31529;51.158;7.354;2022-10-17T00:14:55;39.21;33.74;41.83;;
45246;Laerm;31529;51.158;7.354;2022-10-17T00:15:27;39.29;35.34;42.26;;
45246;Laerm;31529;51.158;7.354;2022-10-17T00:15:58;38.80;34.20;41.44;;
45246;Laerm;31529;51.158;7.354;2022-10-17T00:16:32;38.87;34.20;43.59;;
45246;Laerm;31529;51.158;7.354;2022-10-17T00:17:04;39.24;34.99;42.19;;
45246;Laerm;31529;51.158;7.354;2022-10-17T00:17:35;39.49;35.34;41.98;;
45246;Laerm;31529;51.158;7.354;2022-10-17T00:18:08;67.06;39.11;82.61;;
45246;Laerm;31529;51.158;7.354;2022-10-17T00:18:39;40.31;36.24;44.41;;
45246;Laerm;31529;51.158;7.354;2022-10-17T00:19:10;39.04;33.74;41.44;;
45246;Laerm;31529;51.158;7.354;2022-10-17T00:19:41;39.27;35.66;41.98;;
45246;Laerm;31529;51.158;7.354;2022-10-17T00:20:12;40.01;34.99;44.88;;
45246;Laerm;31529;51.158;7.354;2022-10-17T00:20:44;39.25;34.61;42.26;;
45246;Laerm;31529;51.158;7.354;2022-10-17T00:21:16;39.10;33.74;41.60;;
45246;Laerm;31529;51.158;7.354;2022-10-17T00:21:48;39.12;34.20;41.68;;
45246;Laerm;31529;51.158;7.354;2022-10-17T00:22:19;38.82;32.65;47.62;;
45246;Laerm;31529;51.158;7.354;2022-10-17T00:22:50;39.01;33.74;42.39;;
45246;Laerm;31529;51.158;7.354;2022-10-17T00:23:21;40.90;36.75;44.57;;
45246;Laerm;31529;51.158;7.354;2022-10-17T00:23:53;40.09;35.96;42.59;;
45246;Laerm;31529;51.158;7.354;2022-10-17T00:24:24;39.89;36.50;42.26;;
45246;Laerm;31529;51.158;7.354;2022-10-17T00:24:55;40.13;36.75;42.19;;
45246;Laerm;31529;51.158;7.354;2022-10-17T00:25:26;43.55;35.66;54.91;;
45246;Laerm;31529;51.158;7.354;2022-10-17T00:26:02;63.28;40.11;78.15;;
45246;Laerm;31529;51.158;7.354;2022-10-17T00:26:33;64.09;40.33;77.28;;
45246;Laerm;31529;51.158;7.354;2022-10-17T00:27:04;41.12;36.50;46.10;;
45246;Laerm;31529;51.158;7.354;2022-10-17T00:27:40;65.42;41.28;76.34;;
45246;Laerm;31529;51.158;7.354;2022-10-17T00:28:12;43.41;34.99;51.71;;
45246;Laerm;31529;51.158;7.354;2022-10-17T00:28:51;39.66;34.99;43.49;;
45246;Laerm;31529;51.158;7.354;2022-10-17T00:29:22;40.11;34.99;43.18;;
45246;Laerm;31529;51.158;7.354;2022-10-17T00:29:53;40.20;35.34;42.83;;
45246;Laerm;31529;51.158;7.354;2022-10-17T00:30:24;39.49;35.34;42.19;;
45246;Laerm;31529;51.158;7.354;2022-10-17T00:31:01;39.23;34.20;41.76;;
45246;Laerm;31529;51.158;7.354;2022-10-17T00:31:32;39.16;34.20;41.68;;
45246;Laerm;31529;51.158;7.354;2022-10-17T00:32:03;39.17;35.34;41.76;;
45246;Laerm;31529;51.158;7.354;2022-10-17T00:32:34;39.15;35.66;41.91;;
45246;Laerm;31529;51.158;7.354;2022-10-17T00:33:06;38.83;34.20;41.60;;
45246;Laerm;31529;51.158;7.354;2022-10-17T00:33:37;38.28;33.23;41.01;;
45246;Laerm;31529;51.158;7.354;2022-10-17T00:34:08;38.82;33.74;41.52;;
45246;Laerm;31529;51.158;7.354;2022-10-17T00:34:40;38.59;33.23;41.19;;
45246;Laerm;31529;51.158;7.354;2022-10-17T00:35:11;38.77;32.65;41.52;;
45246;Laerm;31529;51.158;7.354;2022-10-17T00:35:42;38.39;32.65;41.19;;
45246;Laerm;31529;51.158;7.354;2022-10-17T00:36:19;37.97;31.98;40.73;;
45246;Laerm;31529;51.158;7.354;2022-10-17T00:36:50;38.22;31.98;45.13;;
45246;Laerm;31529;51.158;7.354;2022-10-17T00:37:21;38.28;33.74;41.01;;
45246;Laerm;31529;51.158;7.354;2022-10-17T00:37:52;38.17;32.65;41.28;;
45246;Laerm;31529;51.158;7.354;2022-10-17T00:38:23;38.24;32.65;40.73;;
45246;Laerm;31529;51.158;7.354;2022-10-17T00:38:57;38.28;31.19;40.92;;
45246;Laerm;31529;51.158;7.354;2022-10-17T00:39:28;38.28;33.74;41.44;;
45246;Laerm;31529;51.158;7.354;2022-10-17T00:39:59;38.09;33.23;40.83;;
45246;Laerm;31529;51.158;7.354;2022-10-17T00:40:30;38.47;33.74;41.19;;
45246;Laerm;31529;51.158;7.354;2022-10-17T00:41:02;38.04;31.98;41.36;;
45246;Laerm;31529;51.158;7.354;2022-10-17T00:41:33;37.89;31.19;41.10;;
45246;Laerm;31529;51.158;7.354;2022-10-17T00:42:04;38.43;33.23;41.76;;
45246;Laerm;31529;51.158;7.354;2022-10-17T00:42:36;38.39;33.74;41.28;;
45246;Laerm;31529;51.158;7.354;2022-10-17T00:43:16;38.43;32.65;41.28;;
45246;Laerm;31529;51.158;7.354;2022-10-17T00:43:58;40.05;34.20;42.83;;
45246;Laerm;31529;51.158;7.354;2022-10-17T00:45:27;40.90;36.75;45.72;;
45246;Laerm;31529;51.158;7.354;2022-10-17T00:45:59;41.17;35.66;43.49;;
45246;Laerm;31529;51.158;7.354;2022-10-17T00:46:35;40.06;35.96;41.91;;
45246;Laerm;31529;51.158;7.354;2022-10-17T00:47:10;39.75;35.96;42.39;;
45246;Laerm;31529;51.158;7.354;2022-10-17T00:47:47;39.81;35.66;43.59;;
45246;Laerm;31529;51.158;7.354;2022-10-17T00:48:23;39.72;35.66;41.91;;
45246;Laerm;31529;51.158;7.354;2022-10-17T00:48:57;39.48;34.20;41.68;;
45246;Laerm;31529;51.158;7.354;2022-10-17T00:49:31;38.52;34.20;41.10;;
45246;Laerm;31529;51.158;7.354;2022-10-17T00:50:05;39.02;33.85;41.76;;
45246;Laerm;31529;51.158;7.354;2022-10-17T00:50:39;39.35;35.66;42.26;;
45246;Laerm;31529;51.158;7.354;2022-10-17T00:51:11;39.04;34.61;41.91;;
45246;Laerm;31529;51.158;7.354;2022-10-17T00:51:46;39.63;34.61;41.76;;
45246;Laerm;31529;51.158;7.354;2022-10-17T00:52:21;39.18;34.99;50.62;;
45246;Laerm;31529;51.158;7.354;2022-10-17T00:52:56;39.78;36.24;42.71;;
45246;Laerm;31529;51.158;7.354;2022-10-17T00:53:31;39.99;35.96;42.71;;
45246;Laerm;31529;51.158;7.354;2022-10-17T00:54:03;40.64;36.75;44.07;;
45246;Laerm;31529;51.158;7.354;2022-10-17T00:54:39;40.77;35.96;44.84;;
45246;Laerm;31529;51.158;7.354;2022-10-17T00:55:17;40.81;36.50;44.49;;
45246;Laerm;31529;51.158;7.354;2022-10-17T00:55:51;41.18;37.62;43.18;;
45246;Laerm;31529;51.158;7.354;2022-10-17T00:56:23;39.21;34.20;42.59;;
45246;Laerm;31529;51.158;7.354;2022-10-17T00:56:54;38.86;33.74;41.60;;
45246;Laerm;31529;51.158;7.354;2022-10-17T00:57:26;39.31;36.24;41.91;;
45246;Laerm;31529;51.158;7.354;2022-10-17T00:58:01;39.93;36.99;43.54;;
45246;Laerm;31529;51.158;7.354;2022-10-17T00:58:33;39.36;34.64;42.24;;
45246;Laerm;31529;51.158;7.354;2022-10-17T00:59:04;39.97;36.50;44.33;;
45246;Laerm;31529;51.158;7.354;2022-10-17T00:59:38;39.82;35.34;48.90;;
45246;Laerm;31529;51.158;7.354;2022-10-17T01:00:10;39.85;36.50;42.59;;
45246;Laerm;31529;51.158;7.354;2022-10-17T01:00:42;40.69;36.75;43.79;;
45246;Laerm;31529;51.158;7.354;2022-10-17T01:01:13;39.23;34.61;42.19;;
45246;Laerm;31529;51.158;7.354;2022-10-17T01:01:53;39.51;36.24;44.33;;
45246;Laerm;31529;51.158;7.354;2022-10-17T01:02:27;41.20;36.75;47.98;;
45246;Laerm;31529;51.158;7.354;2022-10-17T01:02:58;63.93;40.73;77.86;;
45246;Laerm;31529;51.158;7.354;2022-10-17T01:03:29;40.99;37.62;54.68;;
45246;Laerm;31529;51.158;7.354;2022-10-17T01:04:01;39.85;36.24;41.98;;
45246;Laerm;31529;51.158;7.354;2022-10-17T01:04:32;40.50;35.96;60.26;;
45246;Laerm;31529;51.158;7.354;2022-10-17T01:05:03;39.47;35.34;44.99;;
45246;Laerm;31529;51.158;7.354;2022-10-17T01:05:35;39.81;36.40;42.39;;
45246;Laerm;31529;51.158;7.354;2022-10-17T01:06:06;39.82;36.50;42.19;;
45246;Laerm;31529;51.158;7.354;2022-10-17T01:06:37;40.42;36.75;43.39;;
45246;Laerm;31529;51.158;7.354;2022-10-17T01:07:09;40.59;35.89;43.23;;
45246;Laerm;31529;51.158;7.354;2022-10-17T01:07:41;40.74;36.99;44.88;;
45246;Laerm;31529;51.158;7.354;2022-10-17T01:08:13;40.78;37.21;44.16;;
45246;Laerm;31529;51.158;7.354;2022-10-17T01:08:44;40.33;35.34;45.84;;
45246;Laerm;31529;51.158;7.354;2022-10-17T01:09:16;39.53;36.50;43.88;;
45246;Laerm;31529;51.158;7.354;2022-10-17T01:09:48;39.55;34.61;42.77;;
45246;Laerm;31529;51.158;7.354;2022-10-17T01:10:21;39.91;34.99;43.06;;
45246;Laerm;31529;51.158;7.354;2022-10-17T01:12:19;40.60;36.50;44.41;;
45246;Laerm;31529;51.158;7.354;2022-10-17T01:13:43;41.68;37.42;45.78;;
45246;Laerm;31529;51.158;7.354;2022-10-17T01:14:31;39.98;36.50;42.39;;
45246;Laerm;31529;51.158;7.354;2022-10-17T01:15:12;39.79;36.24;44.88;;
45246;Laerm;31529;51.158;7.354;2022-10-17T01:15:58;39.88;36.24;42.46;;
45246;Laerm;31529;51.158;7.354;2022-10-17T01:18:10;39.98;36.16;43.12;;
45246;Laerm;31529;51.158;7.354;2022-10-17T01:21:52;40.07;35.66;48.90;;
45246;Laerm;31529;51.158;7.354;2022-10-17T01:22:30;39.55;35.34;41.68;;
45246;Laerm;31529;51.158;7.354;2022-10-17T01:24:23;39.40;34.99;41.83;;
45246;Laerm;31529;51.158;7.354;2022-10-17T01:26:58;39.71;33.23;54.99;;
45246;Laerm;31529;51.158;7.354;2022-10-17T01:28:30;39.65;35.61;46.40;;
45246;Laerm;31529;51.158;7.354;2022-10-17T01:29:12;39.78;35.34;48.04;;
45246;Laerm;31529;51.158;7.354;2022-10-17T01:31:06;39.88;35.96;44.20;;
45246;Laerm;31529;51.158;7.354;2022-10-17T01:31:51;40.93;35.66;44.88;;
45246;Laerm;31529;51.158;7.354;2022-10-17T01:32:43;41.96;38.00;45.41;;
45246;Laerm;31529;51.158;7.354;2022-10-17T01:33:29;63.58;37.07;78.96;;
45246;Laerm;31529;51.158;7.354;2022-10-17T01:34:11;40.42;36.99;43.23;;
45246;Laerm;31529;51.158;7.354;2022-10-17T01:35:11;40.41;37.42;43.93;;
45246;Laerm;31529;51.158;7.354;2022-10-17T01:36:48;41.25;37.42;48.07;;
45246;Laerm;31529;51.158;7.354;2022-10-17T01:37:33;68.53;39.41;83.43;;
45246;Laerm;31529;51.158;7.354;2022-10-17T01:38:10;42.10;38.77;49.37;;
45246;Laerm;31529;51.158;7.354;2022-10-17T01:38:47;62.38;36.99;76.91;;
45246;Laerm;31529;51.158;7.354;2022-10-17T01:39:23;40.46;34.61;44.61;;
45246;Laerm;31529;51.158;7.354;2022-10-17T01:40:38;61.43;35.96;79.23;;
45246;Laerm;31529;51.158;7.354;2022-10-17T01:41:37;59.97;35.96;76.15;;
45246;Laerm;31529;51.158;7.354;2022-10-17T01:42:25;43.46;35.34;54.48;;
45246;Laerm;31529;51.158;7.354;2022-10-17T01:43:04;39.19;32.65;42.77;;
45246;Laerm;31529;51.158;7.354;2022-10-17T01:43:47;39.49;34.20;43.28;;
45246;Laerm;31529;51.158;7.354;2022-10-17T01:44:27;39.49;36.16;41.52;;
45246;Laerm;31529;51.158;7.354;2022-10-17T01:45:12;39.27;34.99;42.12;;
45246;Laerm;31529;51.158;7.354;2022-10-17T01:45:50;39.59;34.99;44.99;;
45246;Laerm;31529;51.158;7.354;2022-10-17T01:46:35;39.47;35.96;45.78;;
45246;Laerm;31529;51.158;7.354;2022-10-17T01:47:14;39.38;34.99;41.83;;
45246;Laerm;31529;51.158;7.354;2022-10-17T01:47:46;39.73;35.34;42.46;;
45246;Laerm;31529;51.158;7.354;2022-10-17T01:48:22;39.74;35.31;41.83;;
45246;Laerm;31529;51.158;7.354;2022-10-17T01:48:59;40.19;35.96;42.83;;
45246;Laerm;31529;51.158;7.354;2022-10-17T01:49:33;39.73;36.24;43.06;;
45246;Laerm;31529;51.158;7.354;2022-10-17T01:50:14;39.66;34.99;42.52;;
45246;Laerm;31529;51.158;7.354;2022-10-17T01:50:51;39.68;35.66;42.12;;
45246;Laerm;31529;51.158;7.354;2022-10-17T01:51:28;40.18;36.99;42.52;;
45246;Laerm;31529;51.158;7.354;2022-10-17T01:52:05;39.90;36.50;41.76;;
45246;Laerm;31529;51.158;7.354;2022-10-17T01:52:44;40.70;36.50;43.98;;
45246;Laerm;31529;51.158;7.354;2022-10-17T01:53:30;40.55;36.50;43.12;;
45246;Laerm;31529;51.158;7.354;2022-10-17T01:54:10;41.25;36.99;47.17;;
45246;Laerm;31529;51.158;7.354;2022-10-17T01:54:56;41.91;36.99;45.78;;
45246;Laerm;31529;51.158;7.354;2022-10-17T01:55:35;39.89;35.96;42.19;;
45246;Laerm;31529;51.158;7.354;2022-10-17T01:56:08;40.95;37.21;43.69;;
45246;Laerm;31529;51.158;7.354;2022-10-17T01:56:42;39.94;33.39;44.92;;
45246;Laerm;31529;51.158;7.354;2022-10-17T01:57:25;59.48;36.50;72.89;;
45246;Laerm;31529;51.158;7.354;2022-10-17T01:58:09;48.42;35.96;62.54;;
45246;Laerm;31529;51.158;7.354;2022-10-17T01:58:47;39.29;33.74;41.98;;
45246;Laerm;31529;51.158;7.354;2022-10-17T01:59:23;40.31;36.24;43.93;;
45246;Laerm;31529;51.158;7.354;2022-10-17T01:59:56;40.96;37.21;45.44;;
45246;Laerm;31529;51.158;7.354;2022-10-17T02:00:28;44.07;39.76;53.48;;
45246;Laerm;31529;51.158;7.354;2022-10-17T02:01:04;41.59;37.42;46.07;;
45246;Laerm;31529;51.158;7.354;2022-10-17T02:01:36;43.00;37.21;47.66;;
45246;Laerm;31529;51.158;7.354;2022-10-17T02:02:10;62.00;37.62;75.54;;
45246;Laerm;31529;51.158;7.354;2022-10-17T02:02:44;39.84;36.24;43.18;;
45246;Laerm;31529;51.158;7.354;2022-10-17T02:03:19;40.00;36.75;42.46;;
45246;Laerm;31529;51.158;7.354;2022-10-17T02:03:51;69.72;36.99;83.22;;
45246;Laerm;31529;51.158;7.354;2022-10-17T02:04:24;49.96;37.82;59.00;;
45246;Laerm;31529;51.158;7.354;2022-10-17T02:04:56;40.66;36.99;44.95;;
45246;Laerm;31529;51.158;7.354;2022-10-17T02:05:32;40.46;37.42;43.23;;
45246;Laerm;31529;51.158;7.354;2022-10-17T02:06:06;42.39;38.51;46.50;;
45246;Laerm;31529;51.158;7.354;2022-10-17T02:06:37;61.88;40.11;74.60;;
45246;Laerm;31529;51.158;7.354;2022-10-17T02:07:10;41.45;37.82;44.49;;
45246;Laerm;31529;51.158;7.354;2022-10-17T02:07:41;41.26;38.18;43.28;;
45246;Laerm;31529;51.158;7.354;2022-10-17T02:08:12;40.55;37.21;42.52;;
45246;Laerm;31529;51.158;7.354;2022-10-17T02:08:49;40.37;36.99;42.59;;
45246;Laerm;31529;51.158;7.354;2022-10-17T02:09:25;40.25;36.75;45.17;;
45246;Laerm;31529;51.158;7.354;2022-10-17T02:09:56;40.15;35.31;43.28;;
45246;Laerm;31529;51.158;7.354;2022-10-17T02:11:19;71.74;44.24;87.11;;
45246;Laerm;31529;51.158;7.354;2022-10-17T02:13:01;62.23;36.99;77.18;;
45246;Laerm;31529;51.158;7.354;2022-10-17T02:15:03;39.83;34.99;46.07;;
45246;Laerm;31529;51.158;7.354;2022-10-17T02:15:54;40.31;36.99;45.58;;
45246;Laerm;31529;51.158;7.354;2022-10-17T02:21:19;39.99;35.96;45.31;;
45246;Laerm;31529;51.158;7.354;2022-10-17T02:22:24;42.81;38.18;52.69;;
45246;Laerm;31529;51.158;7.354;2022-10-17T02:23:02;40.88;36.75;44.41;;
45246;Laerm;31529;51.158;7.354;2022-10-17T02:23:54;40.64;35.96;43.59;;
45246;Laerm;31529;51.158;7.354;2022-10-17T02:25:33;52.92;38.00;69.69;;
45246;Laerm;31529;51.158;7.354;2022-10-17T02:26:28;40.21;37.21;42.71;;
45246;Laerm;31529;51.158;7.354;2022-10-17T02:27:11;40.06;35.96;42.46;;
45246;Laerm;31529;51.158;7.354;2022-10-17T02:27:52;40.47;36.75;46.73;;
45246;Laerm;31529;51.158;7.354;2022-10-17T02:28:35;40.24;36.75;43.18;;
45246;Laerm;31529;51.158;7.354;2022-10-17T02:29:17;40.72;36.16;43.54;;
45246;Laerm;31529;51.158;7.354;2022-10-17T02:29:57;39.90;36.50;42.12;;
45246;Laerm;31529;51.158;7.354;2022-10-17T02:30:37;41.22;35.66;45.60;;
45246;Laerm;31529;51.158;7.354;2022-10-17T02:31:16;64.38;43.44;76.89;;
45246;Laerm;31529;51.158;7.354;2022-10-17T02:32:04;62.65;39.11;76.01;;
45246;Laerm;31529;51.158;7.354;2022-10-17T02:32:46;51.64;37.62;67.06;;
45246;Laerm;31529;51.158;7.354;2022-10-17T02:33:28;40.96;35.34;45.60;;
45246;Laerm;31529;51.158;7.354;2022-10-17T02:34:04;64.81;40.53;76.59;;
45246;Laerm;31529;51.158;7.354;2022-10-17T02:34:42;59.28;38.51;73.03;;
45246;Laerm;31529;51.158;7.354;2022-10-17T02:35:16;42.63;38.18;50.39;;
45246;Laerm;31529;51.158;7.354;2022-10-17T02:35:52;40.13;36.75;42.83;;
45246;Laerm;31529;51.158;7.354;2022-10-17T02:36:34;41.00;36.75;44.16;;
45246;Laerm;31529;51.158;7.354;2022-10-17T02:37:09;40.97;38.35;43.44;;
45246;Laerm;31529;51.158;7.354;2022-10-17T02:37:42;65.47;39.11;78.66;;
45246;Laerm;31529;51.158;7.354;2022-10-17T02:38:17;46.11;39.51;54.33;;
45246;Laerm;31529;51.158;7.354;2022-10-17T02:38:49;63.26;38.00;78.35;;
45246;Laerm;31529;51.158;7.354;2022-10-17T02:39:22;64.34;38.00;79.62;;
45246;Laerm;31529;51.158;7.354;2022-10-17T02:39:56;48.81;38.82;60.90;;
45246;Laerm;31529;51.158;7.354;2022-10-17T02:40:30;42.17;37.42;46.21;;
45246;Laerm;31529;51.158;7.354;2022-10-17T02:41:03;41.37;38.97;44.24;;
45246;Laerm;31529;51.158;7.354;2022-10-17T02:41:37;42.40;38.82;46.40;;
45246;Laerm;31529;51.158;7.354;2022-10-17T02:42:11;66.67;41.36;78.56;;
45246;Laerm;31529;51.158;7.354;2022-10-17T02:42:44;46.84;39.38;55.75;;
45246;Laerm;31529;51.158;7.354;2022-10-17T02:43:16;72.03;42.26;84.99;;
45246;Laerm;31529;51.158;7.354;2022-10-17T02:43:48;63.19;40.53;77.91;;
45246;Laerm;31529;51.158;7.354;2022-10-17T02:44:21;42.58;38.51;50.67;;
45246;Laerm;31529;51.158;7.354;2022-10-17T02:44:54;67.14;40.29;81.72;;
45246;Laerm;31529;51.158;7.354;2022-10-17T02:45:29;41.74;37.42;47.48;;
45246;Laerm;31529;51.158;7.354;2022-10-17T02:46:06;59.88;38.18;74.12;;
45246;Laerm;31529;51.158;7.354;2022-10-17T02:46:40;51.99;41.68;66.67;;
45246;Laerm;31529;51.158;7.354;2022-10-17T02:47:27;62.30;39.25;75.19;;
45246;Laerm;31529;51.158;7.354;2022-10-17T02:48:11;64.01;41.60;79.13;;
45246;Laerm;31529;51.158;7.354;2022-10-17T02:48:48;41.93;37.62;46.02;;
45246;Laerm;31529;51.158;7.354;2022-10-17T02:49:23;42.83;37.82;48.55;;
45246;Laerm;31529;51.158;7.354;2022-10-17T02:49:57;69.40;46.27;81.37;;
45246;Laerm;31529;51.158;7.354;2022-10-17T02:51:44;42.80;38.51;46.87;;
45246;Laerm;31529;51.158;7.354;2022-10-17T02:52:39;59.38;37.62;75.91;;
45246;Laerm;31529;51.158;7.354;2022-10-17T02:53:24;66.35;46.05;79.19;;
45246;Laerm;31529;51.158;7.354;2022-10-17T02:54:19;66.31;42.33;82.13;;
45246;Laerm;31529;51.158;7.354;2022-10-17T02:55:15;68.74;39.38;85.18;;
45246;Laerm;31529;51.158;7.354;2022-10-17T02:55:53;62.71;40.53;78.36;;
45246;Laerm;31529;51.158;7.354;2022-10-17T02:56:30;49.81;38.00;65.58;;
45246;Laerm;31529;51.158;7.354;2022-10-17T02:57:58;60.95;40.33;74.33;;
45246;Laerm;31529;51.158;7.354;2022-10-17T02:58:32;63.93;40.11;76.84;;
45246;Laerm;31529;51.158;7.354;2022-10-17T02:59:06;59.43;39.51;72.38;;
45246;Laerm;31529;51.158;7.354;2022-10-17T02:59:39;65.04;43.34;76.52;;
45246;Laerm;31529;51.158;7.354;2022-10-17T03:00:14;60.77;38.00;76.39;;
45246;Laerm;31529;51.158;7.354;2022-10-17T03:00:47;68.92;44.99;81.66;;
45246;Laerm;31529;51.158;7.354;2022-10-17T03:01:19;61.88;43.06;74.63;;
45246;Laerm;31529;51.158;7.354;2022-10-17T03:01:50;67.57;40.63;77.88;;
45246;Laerm;31529;51.158;7.354;2022-10-17T03:02:22;64.25;40.33;78.38;;
45246;Laerm;31529;51.158;7.354;2022-10-17T03:02:53;59.80;38.35;76.47;;
45246;Laerm;31529;51.158;7.354;2022-10-17T03:03:27;64.31;44.64;77.10;;
45246;Laerm;31529;51.158;7.354;2022-10-17T03:04:06;69.78;45.41;79.16;;
45246;Laerm;31529;51.158;7.354;2022-10-17T03:04:41;60.75;42.12;76.61;;
45246;Laerm;31529;51.158;7.354;2022-10-17T03:05:16;70.21;47.12;82.42;;
45246;Laerm;31529;51.158;7.354;2022-10-17T03:05:47;57.64;39.64;71.82;;
45246;Laerm;31529;51.158;7.354;2022-10-17T03:06:19;65.23;40.93;75.94;;
45246;Laerm;31529;51.158;7.354;2022-10-17T03:06:50;45.98;39.11;55.26;;
45246;Laerm;31529;51.158;7.354;2022-10-17T03:07:21;42.91;38.97;49.06;;
45246;Laerm;31529;51.158;7.354;2022-10-17T03:07:53;61.85;41.19;75.33;;
45246;Laerm;31529;51.158;7.354;2022-10-17T03:08:24;41.73;38.82;44.20;;
45246;Laerm;31529;51.158;7.354;2022-10-17T03:08:55;41.56;39.11;43.98;;
45246;Laerm;31529;51.158;7.354;2022-10-17T03:09:26;61.93;39.88;74.53;;
45246;Laerm;31529;51.158;7.354;2022-10-17T03:09:57;63.99;41.28;77.37;;
45246;Laerm;31529;51.158;7.354;2022-10-17T03:10:28;70.94;50.33;84.35;;
45246;Laerm;31529;51.158;7.354;2022-10-17T03:10:59;67.44;44.61;80.68;;
45246;Laerm;31529;51.158;7.354;2022-10-17T03:11:30;66.50;41.36;78.59;;
45246;Laerm;31529;51.158;7.354;2022-10-17T03:12:01;43.23;40.63;46.65;;
45246;Laerm;31529;51.158;7.354;2022-10-17T03:12:32;61.90;42.71;74.37;;
45246;Laerm;31529;51.158;7.354;2022-10-17T03:13:03;69.92;45.20;81.05;;
45246;Laerm;31529;51.158;7.354;2022-10-17T03:13:35;48.70;40.63;59.86;;
45246;Laerm;31529;51.158;7.354;2022-10-17T03:14:06;49.48;39.88;61.24;;
45246;Laerm;31529;51.158;7.354;2022-10-17T03:14:37;63.31;40.22;75.79;;
45246;Laerm;31529;51.158;7.354;2022-10-17T03:15:08;60.34;42.71;73.59;;
45246;Laerm;31529;51.158;7.354;2022-10-17T03:15:39;71.78;44.99;82.48;;
45246;Laerm;31529;51.158;7.354;2022-10-17T03:16:10;65.01;47.80;78.00;;
45246;Laerm;31529;51.158;7.354;2022-10-17T03:16:42;65.31;41.28;77.70;;
45246;Laerm;31529;51.158;7.354;2022-10-17T03:17:13;42.68;40.11;46.13;;
45246;Laerm;31529;51.158;7.354;2022-10-17T03:17:44;69.86;44.29;79.38;;
45246;Laerm;31529;51.158;7.354;2022-10-17T03:18:15;68.54;46.73;79.55;;
45246;Laerm;31529;51.158;7.354;2022-10-17T03:18:46;63.39;42.77;76.62;;
45246;Laerm;31529;51.158;7.354;2022-10-17T03:19:17;60.47;41.60;74.07;;
45246;Laerm;31529;51.158;7.354;2022-10-17T03:19:48;70.00;49.81;79.66;;
45246;Laerm;31529;51.158;7.354;2022-10-17T03:20:19;69.35;41.19;82.17;;
45246;Laerm;31529;51.158;7.354;2022-10-17T03:20:51;63.71;41.76;76.96;;
45246;Laerm;31529;51.158;7.354;2022-10-17T03:21:21;65.96;46.35;75.18;;
45246;Laerm;31529;51.158;7.354;2022-10-17T03:21:53;66.85;43.18;78.11;;
45246;Laerm;31529;51.158;7.354;2022-10-17T03:22:24;45.81;40.73;54.03;;
45246;Laerm;31529;51.158;7.354;2022-10-17T03:22:55;65.17;41.44;76.17;;
45246;Laerm;31529;51.158;7.354;2022-10-17T03:23:26;63.54;43.76;77.96;;
45246;Laerm;31529;51.158;7.354;2022-10-17T03:23:57;68.91;50.70;78.49;;
45246;Laerm;31529;51.158;7.354;2022-10-17T03:24:28;63.51;43.06;74.83;;
45246;Laerm;31529;51.158;7.354;2022-10-17T03:24:59;66.99;46.16;78.94;;
45246;Laerm;31529;51.158;7.354;2022-10-17T03:25:30;64.24;42.46;77.93;;
45246;Laerm;31529;51.158;7.354;2022-10-17T03:26:03;65.97;43.18;77.50;;
45246;Laerm;31529;51.158;7.354;2022-10-17T03:26:34;43.62;41.10;48.93;;
45246;Laerm;31529;51.158;7.354;2022-10-17T03:27:06;62.22;41.36;74.72;;
45246;Laerm;31529;51.158;7.354;2022-10-17T03:27:37;66.97;42.59;81.00;;
45246;Laerm;31529;51.158;7.354;2022-10-17T03:28:10;44.25;41.19;49.33;;
45246;Laerm;31529;51.158;7.354;2022-10-17T03:28:41;70.44;47.54;80.71;;
45246;Laerm;31529;51.158;7.354;2022-10-17T03:29:12;61.44;41.36;72.87;;
45246;Laerm;31529;51.158;7.354;2022-10-17T03:29:43;62.00;41.19;75.26;;
45246;Laerm;31529;51.158;7.354;2022-10-17T03:30:14;61.39;43.58;73.36;;
45246;Laerm;31529;51.158;7.354;2022-10-17T03:30:45;68.42;43.93;77.31;;
45246;Laerm;31529;51.158;7.354;2022-10-17T03:31:17;69.09;53.40;77.01;;
45246;Laerm;31529;51.158;7.354;2022-10-17T03:31:48;70.89;53.18;79.74;;
45246;Laerm;31529;51.158;7.354;2022-10-17T03:32:19;64.05;45.50;77.08;;
45246;Laerm;31529;51.158;7.354;2022-10-17T03:32:50;70.67;48.91;79.84;;
45246;Laerm;31529;51.158;7.354;2022-10-17T03:33:21;70.97;52.25;80.09;;
45246;Laerm;31529;51.158;7.354;2022-10-17T03:33:52;66.51;43.12;80.44;;
45246;Laerm;31529;51.158;7.354;2022-10-17T03:34:23;46.76;42.65;54.04;;
45246;Laerm;31529;51.158;7.354;2022-10-17T03:34:54;74.34;51.59;86.25;;
45246;Laerm;31529;51.158;7.354;2022-10-17T03:35:25;69.36;52.64;77.48;;
45246;Laerm;31529;51.158;7.354;2022-10-17T03:35:56;67.47;45.53;80.22;;
45246;Laerm;31529;51.158;7.354;2022-10-17T03:36:27;68.36;48.70;79.31;;
45246;Laerm;31529;51.158;7.354;2022-10-17T03:36:58;68.00;49.93;77.36;;
45246;Laerm;31529;51.158;7.354;2022-10-17T03:37:30;65.49;44.24;78.36;;
45246;Laerm;31529;51.158;7.354;2022-10-17T03:38:01;69.39;53.60;79.04;;
45246;Laerm;31529;51.158;7.354;2022-10-17T03:38:33;72.40;57.16;80.06;;
45246;Laerm;31529;51.158;7.354;2022-10-17T03:39:04;64.55;44.57;77.44;;
45246;Laerm;31529;51.158;7.354;2022-10-17T03:39:35;70.05;48.53;77.36;;
45246;Laerm;31529;51.158;7.354;2022-10-17T03:40:06;62.27;44.20;74.15;;